createdAt,value
2019-03-25T00:00:44.026Z,100877.33
2019-03-25T00:01:51.097Z,100877.37
2019-03-25T00:02:55.867Z,100875.21
2019-03-25T00:04:00.390Z,100869.84
2019-03-25T00:05:05.164Z,100875.74
2019-03-25T00:06:09.685Z,100868.14
2019-03-25T00:07:14.456Z,100869.48
2019-03-25T00:08:19.144Z,100872.69
2019-03-25T00:09:23.898Z,100877.20
2019-03-25T00:10:28.589Z,100874.12
2019-03-25T00:11:33.278Z,100871.03
2019-03-25T00:12:37.719Z,100878.63
2019-03-25T00:13:42.495Z,100874.23
2019-03-25T00:14:46.945Z,100877.85
2019-03-25T00:15:51.315Z,100877.00
2019-03-25T00:16:55.825Z,100872.09
2019-03-25T00:18:00.344Z,100873.52
2019-03-25T00:19:05.121Z,100870.86
2019-03-25T00:20:09.645Z,100875.34
2019-03-25T00:21:14.166Z,100866.81
2019-03-25T00:22:18.780Z,100874.48
2019-03-25T00:23:23.220Z,100861.02
2019-03-25T00:24:38.227Z,100865.53
2019-03-25T00:25:33.766Z,100861.05
2019-03-25T00:26:38.205Z,100859.74
2019-03-25T00:27:42.813Z,100858.39
2019-03-25T00:28:47.419Z,100868.84
2019-03-25T00:29:52.120Z,100867.52
2019-03-25T00:30:56.804Z,100865.75
2019-03-25T00:32:01.744Z,100867.13
2019-03-25T00:33:06.190Z,100862.66
2019-03-25T00:34:10.724Z,100857.26
2019-03-25T00:35:15.482Z,100857.79
2019-03-25T00:36:20.096Z,100865.89
2019-03-25T00:37:24.532Z,100859.64
2019-03-25T00:38:29.058Z,100859.22
2019-03-25T00:39:33.519Z,100857.90
2019-03-25T00:40:37.956Z,100857.94
2019-03-25T00:41:42.400Z,100859.75
2019-03-25T00:42:46.837Z,100851.72
2019-03-25T00:43:51.280Z,100849.02
2019-03-25T00:44:56.479Z,100849.94
2019-03-25T00:46:01.211Z,100852.64
2019-03-25T00:47:05.653Z,100851.33
2019-03-25T00:48:10.093Z,100850.86
2019-03-25T00:49:14.773Z,100855.41
2019-03-25T00:50:19.388Z,100855.91
2019-03-25T00:51:24.070Z,100848.27
2019-03-25T00:52:28.617Z,100853.67
2019-03-25T00:53:33.314Z,100851.05
2019-03-25T00:54:49.370Z,100850.61
2019-03-25T00:55:44.064Z,100851.11
2019-03-25T00:56:48.622Z,100842.59
2019-03-25T00:57:52.985Z,100851.14
2019-03-25T00:58:57.435Z,100841.80
2019-03-25T01:00:01.987Z,100847.23
2019-03-25T01:01:06.519Z,100844.58
2019-03-25T01:02:11.034Z,100846.84
2019-03-25T01:03:15.478Z,100846.52
2019-03-25T01:04:20.170Z,100843.43
2019-03-25T01:05:24.704Z,100847.52
2019-03-25T01:06:29.384Z,100848.54
2019-03-25T01:07:33.827Z,100852.65
2019-03-25T01:08:38.280Z,100843.70
2019-03-25T01:09:42.649Z,100843.34
2019-03-25T01:10:47.111Z,100841.14
2019-03-25T01:11:51.802Z,100841.67
2019-03-25T01:12:56.246Z,100841.77
2019-03-25T01:14:00.629Z,100844.50
2019-03-25T01:15:05.514Z,100841.87
2019-03-25T01:16:09.952Z,100841.02
2019-03-25T01:17:14.317Z,100839.30
2019-03-25T01:18:18.763Z,100838.91
2019-03-25T01:19:23.368Z,100838.02
2019-03-25T01:20:27.843Z,100835.78
2019-03-25T01:21:32.771Z,100842.62
2019-03-25T01:22:37.455Z,100844.03
2019-03-25T01:23:41.979Z,100841.83
2019-03-25T01:24:46.344Z,100851.36
2019-03-25T01:25:50.805Z,100848.23
2019-03-25T01:26:55.568Z,100840.67
2019-03-25T01:28:00.257Z,100841.20
2019-03-25T01:29:04.946Z,100842.61
2019-03-25T01:30:09.693Z,100843.58
2019-03-25T01:31:14.388Z,100839.61
2019-03-25T01:32:19.075Z,100835.16
2019-03-25T01:33:23.684Z,100834.31
2019-03-25T01:34:28.126Z,100835.23
2019-03-25T01:35:32.761Z,100832.17
2019-03-25T01:36:37.130Z,100835.32
2019-03-25T01:37:42.207Z,100831.73
2019-03-25T01:38:46.648Z,100830.84
2019-03-25T01:39:51.175Z,100837.16
2019-03-25T01:40:55.633Z,100834.06
2019-03-25T01:42:00.402Z,100833.17
2019-03-25T01:43:04.976Z,100829.16
2019-03-25T01:44:09.493Z,100831.00
2019-03-25T01:45:14.008Z,100835.05
2019-03-25T01:46:18.721Z,100835.08
2019-03-25T01:47:23.167Z,100834.67
2019-03-25T01:48:27.778Z,100836.48
2019-03-25T01:49:32.551Z,100834.27
2019-03-25T01:50:37.001Z,100833.39
2019-03-25T01:51:41.526Z,100826.71
2019-03-25T01:52:45.969Z,100837.95
2019-03-25T01:53:50.502Z,100832.62
2019-03-25T01:54:54.940Z,100834.88
2019-03-25T01:55:59.578Z,100832.68
2019-03-25T01:57:04.021Z,100829.59
2019-03-25T01:58:08.470Z,100825.58
2019-03-25T01:59:13.230Z,100824.26
2019-03-25T02:00:17.850Z,100823.40
2019-03-25T02:01:22.313Z,100820.73
2019-03-25T02:02:26.992Z,100814.98
2019-03-25T02:03:31.864Z,100823.48
2019-03-25T02:04:36.299Z,100815.89
2019-03-25T02:05:40.759Z,100814.58
2019-03-25T02:06:45.120Z,100813.69
2019-03-25T02:07:49.565Z,100817.30
2019-03-25T02:08:53.929Z,100815.98
2019-03-25T02:09:58.783Z,100813.74
2019-03-25T02:11:03.497Z,100815.16
2019-03-25T02:12:08.185Z,100810.16
2019-03-25T02:13:12.954Z,100807.56
2019-03-25T02:14:18.191Z,100799.08
2019-03-25T02:15:22.884Z,100797.83
2019-03-25T02:16:27.579Z,100803.61
2019-03-25T02:17:31.942Z,100800.97
2019-03-25T02:18:36.557Z,100800.57
2019-03-25T02:19:41.328Z,100801.48
2019-03-25T02:20:46.276Z,100798.36
2019-03-25T02:21:51.019Z,100799.28
2019-03-25T02:22:56.084Z,100797.13
2019-03-25T02:24:00.516Z,100800.31
2019-03-25T02:25:05.575Z,100798.99
2019-03-25T02:26:09.955Z,100798.13
2019-03-25T02:27:14.396Z,100797.30
2019-03-25T02:28:19.080Z,100796.90
2019-03-25T02:29:23.519Z,100794.23
2019-03-25T02:30:28.033Z,100802.80
2019-03-25T02:31:32.412Z,100801.05
2019-03-25T02:32:37.105Z,100797.07
2019-03-25T02:33:41.717Z,100801.13
2019-03-25T02:34:46.083Z,100799.36
2019-03-25T02:35:50.528Z,100795.80
2019-03-25T02:36:54.988Z,100801.25
2019-03-25T02:37:59.367Z,100794.55
2019-03-25T02:39:04.978Z,100798.61
2019-03-25T02:40:09.499Z,100794.16
2019-03-25T02:41:14.116Z,100801.34
2019-03-25T02:42:18.639Z,100800.46
2019-03-25T02:43:23.260Z,100805.91
2019-03-25T02:44:27.629Z,100806.84
2019-03-25T02:45:32.571Z,100802.86
2019-03-25T02:46:37.027Z,100806.95
2019-03-25T02:47:41.541Z,100801.56
2019-03-25T02:48:46.401Z,100804.73
2019-03-25T02:49:51.262Z,100804.33
2019-03-25T02:50:55.636Z,100802.55
2019-03-25T02:52:00.280Z,100807.05
2019-03-25T02:53:04.694Z,100795.85
2019-03-25T02:54:10.051Z,100802.20
2019-03-25T02:55:14.505Z,100799.97
2019-03-25T02:56:18.953Z,100797.77
2019-03-25T02:57:23.320Z,100804.97
2019-03-25T02:58:27.759Z,100798.33
2019-03-25T02:59:32.387Z,100804.62
2019-03-25T03:00:38.085Z,100799.27
2019-03-25T03:01:42.529Z,100806.02
2019-03-25T03:02:46.897Z,100808.29
2019-03-25T03:03:51.263Z,100808.34
2019-03-25T03:04:55.616Z,100801.67
2019-03-25T03:06:00.254Z,100806.62
2019-03-25T03:07:04.710Z,100806.19
2019-03-25T03:08:09.458Z,100807.61
2019-03-25T03:09:14.213Z,100807.61
2019-03-25T03:10:18.726Z,100800.02
2019-03-25T03:11:23.180Z,100803.19
2019-03-25T03:12:27.627Z,100804.53
2019-03-25T03:13:32.416Z,100803.64
2019-03-25T03:14:36.792Z,100799.61
2019-03-25T03:15:41.177Z,100802.31
2019-03-25T03:16:45.836Z,100803.66
2019-03-25T03:17:50.209Z,100801.48
2019-03-25T03:18:54.591Z,100801.97
2019-03-25T03:19:59.617Z,100799.73
2019-03-25T03:21:04.072Z,100797.95
2019-03-25T03:22:08.443Z,100795.72
2019-03-25T03:23:12.794Z,100790.34
2019-03-25T03:24:17.159Z,100786.74
2019-03-25T03:25:21.860Z,100792.12
2019-03-25T03:26:26.812Z,100793.47
2019-03-25T03:27:31.491Z,100791.23
2019-03-25T03:28:35.858Z,100792.14
2019-03-25T03:29:40.473Z,100787.66
2019-03-25T03:30:44.916Z,100787.20
2019-03-25T03:31:49.561Z,100794.35
2019-03-25T03:32:54.140Z,100788.09
2019-03-25T03:33:58.521Z,100785.40
2019-03-25T03:35:03.595Z,100782.73
2019-03-25T03:36:08.111Z,100782.27
2019-03-25T03:37:12.813Z,100779.61
2019-03-25T03:38:17.746Z,100775.63
2019-03-25T03:39:22.677Z,100776.98
2019-03-25T03:40:27.128Z,100776.13
2019-03-25T03:41:31.496Z,100769.44
2019-03-25T03:42:35.945Z,100774.38
2019-03-25T03:43:40.746Z,100773.55
2019-03-25T03:44:45.187Z,100772.68
2019-03-25T03:45:49.860Z,100774.94
2019-03-25T03:46:54.592Z,100769.59
2019-03-25T03:47:59.261Z,100770.59
2019-03-25T03:49:03.952Z,100770.63
2019-03-25T03:50:08.907Z,100772.88
2019-03-25T03:51:13.539Z,100776.03
2019-03-25T03:52:18.308Z,100772.96
2019-03-25T03:53:22.842Z,100764.03
2019-03-25T03:54:27.336Z,100768.06
2019-03-25T03:55:34.400Z,100766.74
2019-03-25T03:56:39.390Z,100764.51
2019-03-25T03:57:44.895Z,100769.88
2019-03-25T03:58:50.515Z,100763.23
2019-03-25T03:59:55.515Z,100765.49
2019-03-25T04:00:59.877Z,100769.09
2019-03-25T04:02:04.344Z,100765.97
2019-03-25T04:03:08.867Z,100765.53
2019-03-25T04:04:13.235Z,100765.53
2019-03-25T04:05:17.838Z,100767.78
2019-03-25T04:06:22.300Z,100764.66
2019-03-25T04:07:26.677Z,100760.66
2019-03-25T04:08:31.112Z,100765.65
2019-03-25T04:09:35.629Z,100762.97
2019-03-25T04:10:40.566Z,100762.97
2019-03-25T04:11:45.276Z,100766.13
2019-03-25T04:12:49.961Z,100769.72
2019-03-25T04:13:54.476Z,100763.93
2019-03-25T04:14:59.247Z,100761.30
2019-03-25T04:16:03.809Z,100764.89
2019-03-25T04:17:08.257Z,100757.74
2019-03-25T04:18:12.785Z,100762.25
2019-03-25T04:19:17.266Z,100756.00
2019-03-25T04:20:22.312Z,100755.11
2019-03-25T04:21:26.690Z,100765.91
2019-03-25T04:22:31.045Z,100757.89
2019-03-25T04:23:35.649Z,100758.31
2019-03-25T04:24:40.270Z,100752.96
2019-03-25T04:25:44.886Z,100752.59
2019-03-25T04:26:49.512Z,100759.77
2019-03-25T04:27:54.288Z,100758.89
2019-03-25T04:28:58.732Z,100757.14
2019-03-25T04:30:03.176Z,100761.23
2019-03-25T04:31:07.614Z,100761.71
2019-03-25T04:32:12.071Z,100751.89
2019-03-25T04:33:16.765Z,100756.38
2019-03-25T04:34:21.124Z,100755.54
2019-03-25T04:35:25.570Z,100756.42
2019-03-25T04:36:30.030Z,100752.87
2019-03-25T04:37:34.472Z,100753.30
2019-03-25T04:38:39.134Z,100756.45
2019-03-25T04:39:44.069Z,100753.29
2019-03-25T04:40:48.435Z,100759.93
2019-03-25T04:41:52.809Z,100754.52
2019-03-25T04:42:57.170Z,100754.45
2019-03-25T04:44:01.619Z,100746.36
2019-03-25T04:45:06.291Z,100738.70
2019-03-25T04:46:10.908Z,100742.67
2019-03-25T04:47:15.383Z,100739.53
2019-03-25T04:48:19.830Z,100740.87
2019-03-25T04:49:24.271Z,100738.62
2019-03-25T04:50:28.792Z,100732.28
2019-03-25T04:51:33.154Z,100732.70
2019-03-25T04:52:37.612Z,100734.02
2019-03-25T04:53:42.215Z,100738.05
2019-03-25T04:54:46.906Z,100741.19
2019-03-25T04:55:51.352Z,100733.13
2019-03-25T04:56:55.804Z,100736.25
2019-03-25T04:58:00.412Z,100734.91
2019-03-25T04:59:05.557Z,100740.72
2019-03-25T05:00:10.425Z,100737.59
2019-03-25T05:01:14.866Z,100732.66
2019-03-25T05:02:19.889Z,100738.03
2019-03-25T05:03:24.256Z,100727.28
2019-03-25T05:04:28.947Z,100728.16
2019-03-25T05:05:35.883Z,100733.02
2019-03-25T05:06:39.559Z,100730.33
2019-03-25T05:07:43.939Z,100734.34
2019-03-25T05:08:48.554Z,100728.48
2019-03-25T05:09:53.244Z,100732.93
2019-03-25T05:10:57.687Z,100732.40
2019-03-25T05:12:02.233Z,100730.56
2019-03-25T05:13:06.850Z,100728.25
2019-03-25T05:14:11.293Z,100732.69
2019-03-25T05:15:15.734Z,100718.48
2019-03-25T05:16:20.656Z,100734.34
2019-03-25T05:17:25.352Z,100730.72
2019-03-25T05:18:30.364Z,100725.76
2019-03-25T05:19:34.726Z,100723.88
2019-03-25T05:20:39.341Z,100718.91
2019-03-25T05:21:43.948Z,100727.41
2019-03-25T05:22:48.609Z,100729.13
2019-03-25T05:23:52.945Z,100727.77
2019-03-25T05:24:57.382Z,100722.81
2019-03-25T05:26:02.650Z,100721.04
2019-03-25T05:27:07.164Z,100716.14
2019-03-25T05:28:11.629Z,100711.22
2019-03-25T05:29:15.986Z,100711.30
2019-03-25T05:30:22.934Z,100711.33
2019-03-25T05:31:26.831Z,100713.58
2019-03-25T05:32:31.197Z,100708.66
2019-03-25T05:33:35.895Z,100718.09
2019-03-25T05:34:40.848Z,100715.41
2019-03-25T05:35:46.878Z,100714.06
2019-03-25T05:36:52.356Z,100710.01
2019-03-25T05:37:57.269Z,100703.72
2019-03-25T05:39:01.890Z,100698.80
2019-03-25T05:40:06.517Z,100701.87
2019-03-25T05:41:10.885Z,100699.61
2019-03-25T05:42:15.504Z,100704.00
2019-03-25T05:43:21.198Z,100700.39
2019-03-25T05:44:25.992Z,100701.27
2019-03-25T05:45:30.829Z,100699.91
2019-03-25T05:46:35.471Z,100703.03
2019-03-25T05:47:39.926Z,100698.52
2019-03-25T05:48:44.805Z,100702.52
2019-03-25T05:49:49.467Z,100705.67
2019-03-25T05:50:54.481Z,100694.89
2019-03-25T05:51:58.918Z,100696.72
2019-03-25T05:53:04.186Z,100693.63
2019-03-25T05:54:08.550Z,100693.20
2019-03-25T05:55:13.165Z,100691.39
2019-03-25T05:56:19.343Z,100695.37
2019-03-25T05:57:23.712Z,100693.55
2019-03-25T05:58:28.100Z,100694.00
2019-03-25T05:59:32.728Z,100700.22
2019-03-25T06:00:37.612Z,100687.64
2019-03-25T06:01:44.219Z,100687.12
2019-03-25T06:02:48.618Z,100685.67
2019-03-25T06:03:53.075Z,100686.50
2019-03-25T06:04:57.748Z,100679.29
2019-03-25T06:06:02.194Z,100677.33
2019-03-25T06:07:06.632Z,100677.19
2019-03-25T06:08:11.012Z,100677.10
2019-03-25T06:09:15.633Z,100674.72
2019-03-25T06:10:20.160Z,100670.97
2019-03-25T06:11:25.026Z,100679.27
2019-03-25T06:12:29.764Z,100673.19
2019-03-25T06:13:34.228Z,100677.44
2019-03-25T06:14:38.918Z,100668.72
2019-03-25T06:15:43.402Z,100670.61
2019-03-25T06:16:48.020Z,100672.68
2019-03-25T06:17:52.489Z,100673.86
2019-03-25T06:18:56.890Z,100676.03
2019-03-25T06:20:01.353Z,100670.02
2019-03-25T06:21:05.797Z,100667.09
2019-03-25T06:22:10.511Z,100662.31
2019-03-25T06:23:15.302Z,100665.97
2019-03-25T06:24:19.754Z,100671.19
2019-03-25T06:25:24.221Z,100665.69
2019-03-25T06:26:28.850Z,100670.02
2019-03-25T06:27:33.203Z,100664.56
2019-03-25T06:28:37.832Z,100667.64
2019-03-25T06:29:42.274Z,100660.77
2019-03-25T06:30:47.217Z,100659.31
2019-03-25T06:31:51.825Z,100658.81
2019-03-25T06:32:56.815Z,100665.87
2019-03-25T06:34:01.448Z,100663.98
2019-03-25T06:35:08.689Z,100662.48
2019-03-25T06:36:12.660Z,100657.84
2019-03-25T06:37:17.055Z,100649.06
2019-03-25T06:38:21.841Z,100658.04
2019-03-25T06:39:26.262Z,100654.84
2019-03-25T06:40:30.710Z,100652.10
2019-03-25T06:41:35.416Z,100652.38
2019-03-25T06:42:40.108Z,100643.78
2019-03-25T06:43:44.483Z,100645.59
2019-03-25T06:44:49.006Z,100643.74
2019-03-25T06:45:53.445Z,100649.56
2019-03-25T06:46:58.379Z,100642.35
2019-03-25T06:48:03.081Z,100644.09
2019-03-25T06:49:07.535Z,100639.46
2019-03-25T06:50:12.059Z,100645.75
2019-03-25T06:51:16.676Z,100643.01
2019-03-25T06:52:21.121Z,100644.66
2019-03-25T06:53:25.832Z,100637.92
2019-03-25T06:54:30.360Z,100645.09
2019-03-25T06:55:34.808Z,100652.22
2019-03-25T06:56:39.413Z,100653.10
2019-03-25T06:57:43.858Z,100665.59
2019-03-25T06:58:48.485Z,100666.06
2019-03-25T06:59:52.860Z,100669.10
2019-03-25T07:00:57.715Z,100670.95
2019-03-25T07:02:02.095Z,100667.37
2019-03-25T07:03:06.842Z,100672.27
2019-03-25T07:04:11.557Z,100667.75
2019-03-25T07:05:17.558Z,100667.25
2019-03-25T07:06:22.002Z,100669.95
2019-03-25T07:07:26.451Z,100661.31
2019-03-25T07:08:31.801Z,100658.95
2019-03-25T07:09:36.178Z,100660.61
2019-03-25T07:10:41.119Z,100647.88
2019-03-25T07:11:46.187Z,100648.61
2019-03-25T07:12:50.880Z,100640.87
2019-03-25T07:13:55.765Z,100638.02
2019-03-25T07:15:00.327Z,100630.25
2019-03-25T07:16:04.818Z,100632.28
2019-03-25T07:17:09.576Z,100623.20
2019-03-25T07:18:14.022Z,100611.31
2019-03-25T07:19:18.425Z,100618.78
2019-03-25T07:20:22.878Z,100629.95
2019-03-25T07:21:27.342Z,100631.61
2019-03-25T07:22:31.791Z,100635.48
2019-03-25T07:23:36.425Z,100643.46
2019-03-25T07:24:41.021Z,100642.95
2019-03-25T07:25:45.475Z,100640.58
2019-03-25T07:26:49.914Z,100634.83
2019-03-25T07:27:54.600Z,100645.12
2019-03-25T07:28:59.489Z,100647.31
2019-03-25T07:30:04.162Z,100639.12
2019-03-25T07:31:08.601Z,100645.23
2019-03-25T07:32:13.117Z,100632.98
2019-03-25T07:33:17.483Z,100639.52
2019-03-25T07:34:21.870Z,100638.45
2019-03-25T07:35:26.557Z,100634.20
2019-03-25T07:36:30.926Z,100628.62
2019-03-25T07:37:35.302Z,100633.05
2019-03-25T07:38:39.684Z,100632.44
2019-03-25T07:39:44.294Z,100640.86
2019-03-25T07:40:49.056Z,100633.08
2019-03-25T07:41:53.830Z,100632.52
2019-03-25T07:42:58.395Z,100641.85
2019-03-25T07:44:02.783Z,100637.33
2019-03-25T07:45:07.883Z,100642.45
2019-03-25T07:46:12.244Z,100642.55
2019-03-25T07:47:16.867Z,100650.71
2019-03-25T07:48:22.244Z,100651.13
2019-03-25T07:49:26.703Z,100657.42
2019-03-25T07:50:31.394Z,100667.36
2019-03-25T07:51:35.838Z,100660.59
2019-03-25T07:52:40.288Z,100653.83
2019-03-25T07:53:45.268Z,100659.20
2019-03-25T07:54:49.940Z,100661.90
2019-03-25T07:55:55.294Z,100667.78
2019-03-25T07:56:59.762Z,100664.66
2019-03-25T07:58:04.262Z,100661.44
2019-03-25T07:59:08.810Z,100661.75
2019-03-25T08:00:14.319Z,100660.27
2019-03-25T08:01:18.803Z,100652.89
2019-03-25T08:02:23.887Z,100654.53
2019-03-25T08:03:28.298Z,100653.41
2019-03-25T08:04:32.769Z,100653.30
2019-03-25T08:05:37.282Z,100652.66
2019-03-25T08:06:41.661Z,100648.86
2019-03-25T08:07:46.327Z,100666.03
2019-03-25T08:08:50.691Z,100662.48
2019-03-25T08:09:55.387Z,100664.36
2019-03-25T08:10:59.798Z,100662.20
2019-03-25T08:12:04.268Z,100664.97
2019-03-25T08:13:08.953Z,100668.00
2019-03-25T08:14:13.933Z,100668.70
2019-03-25T08:15:18.383Z,100668.57
2019-03-25T08:16:23.070Z,100661.52
2019-03-25T08:17:27.441Z,100676.50
2019-03-25T08:18:31.808Z,100663.91
2019-03-25T08:19:36.190Z,100675.66
2019-03-25T08:20:40.719Z,100668.09
2019-03-25T08:21:45.418Z,100668.66
2019-03-25T08:22:49.788Z,100670.06
2019-03-25T08:23:54.247Z,100671.41
2019-03-25T08:24:58.695Z,100679.66
2019-03-25T08:26:03.141Z,100678.41
2019-03-25T08:27:07.670Z,100688.40
2019-03-25T08:28:12.195Z,100689.41
2019-03-25T08:29:16.578Z,100682.70
2019-03-25T08:30:21.033Z,100691.23
2019-03-25T08:31:25.722Z,100687.17
2019-03-25T08:32:30.420Z,100689.83
2019-03-25T08:33:35.197Z,100697.11
2019-03-25T08:34:39.907Z,100687.17
2019-03-25T08:35:44.429Z,100688.06
2019-03-25T08:36:48.912Z,100677.75
2019-03-25T08:37:53.434Z,100688.95
2019-03-25T08:38:58.349Z,100679.95
2019-03-25T08:40:02.888Z,100674.81
2019-03-25T08:41:07.654Z,100686.38
2019-03-25T08:42:12.428Z,100690.02
2019-03-25T08:43:16.870Z,100697.33
2019-03-25T08:44:21.755Z,100696.91
2019-03-25T08:45:26.514Z,100709.96
2019-03-25T08:46:30.971Z,100702.31
2019-03-25T08:47:35.670Z,100705.48
2019-03-25T08:48:40.117Z,100712.62
2019-03-25T08:49:44.579Z,100703.20
2019-03-25T08:50:49.023Z,100713.55
2019-03-25T08:51:53.548Z,100718.02
2019-03-25T08:52:58.071Z,100711.73
2019-03-25T08:54:02.855Z,100715.84
2019-03-25T08:55:08.027Z,100714.95
2019-03-25T08:56:13.041Z,100711.87
2019-03-25T08:57:17.404Z,100716.44
2019-03-25T08:58:21.774Z,100710.09
2019-03-25T08:59:26.654Z,100712.84
2019-03-25T09:00:31.176Z,100713.34
2019-03-25T09:01:35.826Z,100722.39
2019-03-25T09:02:40.443Z,100723.28
2019-03-25T09:03:44.888Z,100712.93
2019-03-25T09:04:49.505Z,100719.27
2019-03-25T09:05:53.945Z,100722.91
2019-03-25T09:06:58.554Z,100717.96
2019-03-25T09:08:03.079Z,100725.61
2019-03-25T09:09:08.622Z,100732.36
2019-03-25T09:10:13.448Z,100724.16
2019-03-25T09:11:18.396Z,100726.79
2019-03-25T09:12:22.771Z,100734.81
2019-03-25T09:13:27.290Z,100736.41
2019-03-25T09:14:31.993Z,100736.31
2019-03-25T09:15:37.108Z,100736.22
2019-03-25T09:16:41.805Z,100727.97
2019-03-25T09:17:46.489Z,100727.80
2019-03-25T09:18:51.028Z,100734.88
2019-03-25T09:19:55.387Z,100736.95
2019-03-25T09:20:59.757Z,100721.92
2019-03-25T09:22:04.287Z,100726.32
2019-03-25T09:23:08.734Z,100725.70
2019-03-25T09:24:13.108Z,100724.55
2019-03-25T09:25:17.854Z,100727.95
2019-03-25T09:26:22.377Z,100733.97
2019-03-25T09:27:27.061Z,100723.75
2019-03-25T09:28:31.501Z,100726.25
2019-03-25T09:29:35.977Z,100722.31
2019-03-25T09:31:19.687Z,100721.48
2019-03-25T09:32:24.384Z,100725.85
2019-03-25T09:33:29.146Z,100729.63
2019-03-25T09:34:33.531Z,100712.66
2019-03-25T09:35:37.904Z,100727.97
2019-03-25T09:36:42.346Z,100723.80
2019-03-25T09:37:46.865Z,100720.26
2019-03-25T09:38:51.552Z,100718.77
2019-03-25T09:39:55.930Z,100722.47
2019-03-25T09:41:00.374Z,100725.34
2019-03-25T09:42:05.074Z,100717.88
2019-03-25T09:43:09.589Z,100727.89
2019-03-25T09:44:14.112Z,100717.41
2019-03-25T09:45:18.648Z,100707.10
2019-03-25T09:46:23.173Z,100707.63
2019-03-25T09:47:27.695Z,100716.36
2019-03-25T09:48:32.145Z,100708.76
2019-03-25T09:49:36.867Z,100722.44
2019-03-25T09:50:41.316Z,100718.59
2019-03-25T09:51:45.840Z,100713.84
2019-03-25T09:52:50.211Z,100715.77
2019-03-25T09:53:54.907Z,100709.95
2019-03-25T09:54:59.292Z,100708.34
2019-03-25T09:56:04.607Z,100704.94
2019-03-25T09:57:10.503Z,100700.36
2019-03-25T09:58:15.029Z,100699.27
2019-03-25T09:59:19.648Z,100706.11
2019-03-25T10:00:30.499Z,100713.20
2019-03-25T10:01:34.872Z,100692.87
2019-03-25T10:02:39.411Z,100690.25
2019-03-25T10:03:44.177Z,100711.81
2019-03-25T10:04:48.891Z,100700.44
2019-03-25T10:05:53.527Z,100697.16
2019-03-25T10:06:58.050Z,100693.56
2019-03-25T10:08:02.823Z,100700.75
2019-03-25T10:09:11.440Z,100696.98
2019-03-25T10:10:15.969Z,100693.06
2019-03-25T10:11:20.418Z,100682.74
2019-03-25T10:12:24.863Z,100689.11
2019-03-25T10:13:29.397Z,100702.67
2019-03-25T10:14:34.021Z,100700.05
2019-03-25T10:15:38.569Z,100687.50
2019-03-25T10:16:43.011Z,100678.70
2019-03-25T10:17:47.534Z,100697.45
2019-03-25T10:18:52.218Z,100697.29
2019-03-25T10:19:56.684Z,100694.45
2019-03-25T10:21:01.446Z,100700.67
2019-03-25T10:22:05.999Z,100703.67
2019-03-25T10:23:10.462Z,100697.49
2019-03-25T10:24:15.412Z,100682.75
2019-03-25T10:25:19.925Z,100702.23
2019-03-25T10:26:24.379Z,100701.75
2019-03-25T10:27:28.833Z,100693.70
2019-03-25T10:28:33.275Z,100690.10
2019-03-25T10:29:37.643Z,100695.38
2019-03-25T10:30:42.178Z,100693.07
2019-03-25T10:31:46.695Z,100706.11
2019-03-25T10:32:51.133Z,100688.33
2019-03-25T10:33:55.651Z,100696.89
2019-03-25T10:35:00.019Z,100695.53
2019-03-25T10:36:04.565Z,100690.64
2019-03-25T10:37:09.087Z,100683.85
2019-03-25T10:38:19.639Z,100682.30
2019-03-25T10:39:20.381Z,100685.14
2019-03-25T10:40:24.921Z,100680.40
2019-03-25T10:41:29.367Z,100679.38
2019-03-25T10:42:33.809Z,100674.02
2019-03-25T10:43:38.504Z,100665.28
2019-03-25T10:44:42.955Z,100676.86
2019-03-25T10:45:47.493Z,100668.38
2019-03-25T10:46:51.934Z,100676.53
2019-03-25T10:47:56.453Z,100668.98
2019-03-25T10:49:01.127Z,100675.84
2019-03-25T10:50:06.415Z,100662.95
2019-03-25T10:51:10.967Z,100664.50
2019-03-25T10:52:15.344Z,100669.52
2019-03-25T10:53:19.958Z,100677.48
2019-03-25T10:54:24.380Z,100675.95
2019-03-25T10:55:28.721Z,100666.33
2019-03-25T10:56:33.351Z,100657.53
2019-03-25T10:57:37.799Z,100669.56
2019-03-25T10:58:42.174Z,100649.91
2019-03-25T10:59:46.699Z,100660.98
2019-03-25T11:00:51.556Z,100657.87
2019-03-25T11:01:56.075Z,100666.19
2019-03-25T11:03:00.943Z,100647.70
2019-03-25T11:04:05.466Z,100665.59
2019-03-25T11:05:10.437Z,100662.86
2019-03-25T11:06:15.156Z,100644.38
2019-03-25T11:07:19.995Z,100663.16
2019-03-25T11:08:24.931Z,100643.23
2019-03-25T11:09:29.372Z,100642.09
2019-03-25T11:10:34.057Z,100654.08
2019-03-25T11:11:38.530Z,100647.42
2019-03-25T11:12:42.896Z,100646.13
2019-03-25T11:13:47.341Z,100614.61
2019-03-25T11:14:51.785Z,100651.63
2019-03-25T11:15:56.257Z,100649.95
2019-03-25T11:17:00.998Z,100649.48
2019-03-25T11:18:05.904Z,100652.51
2019-03-25T11:19:10.662Z,100655.27
2019-03-25T11:20:15.420Z,100648.28
2019-03-25T11:21:19.878Z,100649.37
2019-03-25T11:22:24.511Z,100663.02
2019-03-25T11:23:29.023Z,100652.55
2019-03-25T11:24:33.540Z,100649.84
2019-03-25T11:25:37.984Z,100653.09
2019-03-25T11:26:42.517Z,100653.67
2019-03-25T11:27:54.257Z,100663.38
2019-03-25T11:28:53.734Z,100650.43
2019-03-25T11:29:58.258Z,100685.33
2019-03-25T11:31:02.782Z,100696.12
2019-03-25T11:32:07.251Z,100729.00
2019-03-25T11:33:11.636Z,100757.03
2019-03-25T11:34:16.004Z,100734.08
2019-03-25T11:35:20.448Z,100734.42
2019-03-25T11:36:24.830Z,100711.95
2019-03-25T11:37:29.842Z,100716.78
2019-03-25T11:38:34.362Z,100719.31
2019-03-25T11:39:38.890Z,100707.61
2019-03-25T11:40:43.409Z,100704.87
2019-03-25T11:41:47.946Z,100695.38
2019-03-25T11:42:52.393Z,100700.98
2019-03-25T11:43:56.908Z,100698.37
2019-03-25T11:45:01.278Z,100698.78
2019-03-25T11:46:06.044Z,100691.50
2019-03-25T11:47:10.425Z,100696.45
2019-03-25T11:48:14.875Z,100699.94
2019-03-25T11:49:19.319Z,100694.39
2019-03-25T11:50:23.843Z,100687.05
2019-03-25T11:51:28.647Z,100686.81
2019-03-25T11:52:33.090Z,100684.33
2019-03-25T11:53:37.568Z,100678.15
2019-03-25T11:54:42.013Z,100684.40
2019-03-25T11:55:46.725Z,100677.94
2019-03-25T11:56:51.183Z,100681.86
2019-03-25T11:57:55.625Z,100673.10
2019-03-25T11:59:02.803Z,100670.92
2019-03-25T12:00:07.999Z,100665.20
2019-03-25T12:01:12.516Z,100667.81
2019-03-25T12:02:17.978Z,100664.95
2019-03-25T12:03:22.539Z,100657.16
2019-03-25T12:04:27.224Z,100662.41
2019-03-25T12:05:31.591Z,100643.80
2019-03-25T12:06:36.208Z,100648.42
2019-03-25T12:07:41.145Z,100643.08
2019-03-25T12:08:45.592Z,100646.22
2019-03-25T12:09:49.956Z,100640.16
2019-03-25T12:10:54.401Z,100640.10
2019-03-25T12:11:58.859Z,100646.55
2019-03-25T12:13:03.224Z,100647.11
2019-03-25T12:14:07.753Z,100642.88
2019-03-25T12:15:12.496Z,100647.30
2019-03-25T12:16:17.014Z,100669.53
2019-03-25T12:17:21.722Z,100668.75
2019-03-25T12:18:26.172Z,100649.55